createdAt,value
2017-05-15T00:00:57.933Z,19.98
2017-05-15T00:02:08.283Z,20.05
2017-05-15T00:03:18.335Z,20.19
2017-05-15T00:04:28.849Z,20.02
2017-05-15T00:05:38.897Z,20.05
2017-05-15T00:06:48.938Z,20.04
2017-05-15T00:07:59.297Z,20.04
2017-05-15T00:09:09.334Z,20.01
2017-05-15T00:10:19.466Z,20
2017-05-15T00:11:29.814Z,20.01
2017-05-15T00:12:40.165Z,19.98
2017-05-15T00:13:50.517Z,19.97
2017-05-15T00:15:00.879Z,19.95
2017-05-15T00:16:11.334Z,19.97
2017-05-15T00:17:21.722Z,19.97
2017-05-15T00:18:31.755Z,19.82
2017-05-15T00:19:42.099Z,19.92
2017-05-15T00:20:52.141Z,19.93
2017-05-15T00:22:02.818Z,19.82
2017-05-15T00:23:12.865Z,19.86
2017-05-15T00:24:23.215Z,19.87
2017-05-15T00:25:33.561Z,19.89
2017-05-15T00:26:43.906Z,19.85
2017-05-15T00:27:54.355Z,19.86
2017-05-15T00:29:04.699Z,19.72
2017-05-15T00:30:15.039Z,19.78
2017-05-15T00:31:25.454Z,19.8
2017-05-15T00:32:35.507Z,19.79
2017-05-15T00:33:45.666Z,19.82
2017-05-15T00:34:55.703Z,19.83
2017-05-15T00:36:06.048Z,19.83
2017-05-15T00:37:16.410Z,19.86
2017-05-15T00:38:26.777Z,19.85
2017-05-15T00:39:37.244Z,19.79
2017-05-15T00:40:47.602Z,19.92
2017-05-15T00:41:57.661Z,19.95
2017-05-15T00:43:08.065Z,19.95
2017-05-15T00:44:18.421Z,20
2017-05-15T00:45:28.582Z,20.02
2017-05-15T00:46:38.929Z,20
2017-05-15T00:47:48.973Z,20.05
2017-05-15T00:48:59.324Z,20.04
2017-05-15T00:50:09.376Z,20.07
2017-05-15T00:51:19.516Z,19.97
2017-05-15T00:52:29.553Z,20.04
2017-05-15T00:53:39.904Z,20.01
2017-05-15T00:54:50.276Z,20.01
2017-05-15T00:56:00.644Z,19.98
2017-05-15T00:57:11.106Z,19.92
2017-05-15T00:58:21.151Z,19.92
2017-05-15T00:59:31.513Z,19.89
2017-05-15T01:00:41.861Z,19.93
2017-05-15T01:01:52.207Z,19.87
2017-05-15T01:03:02.383Z,19.79
2017-05-15T01:04:12.728Z,19.8
2017-05-15T01:05:23.083Z,19.78
2017-05-15T01:06:33.437Z,19.8
2017-05-15T01:07:43.801Z,19.74
2017-05-15T01:08:53.994Z,19.74
2017-05-15T01:10:04.343Z,19.74
2017-05-15T01:11:14.387Z,19.72
2017-05-15T01:12:24.745Z,19.74
2017-05-15T01:13:34.486Z,19.63
2017-05-15T01:14:44.693Z,19.74
2017-05-15T01:15:54.727Z,19.64
2017-05-15T01:17:05.096Z,19.74
2017-05-15T01:18:15.128Z,19.68
2017-05-15T01:19:25.501Z,19.7
2017-05-15T01:20:35.947Z,19.61
2017-05-15T01:21:46.293Z,19.67
2017-05-15T01:22:56.025Z,19.64
2017-05-15T01:24:06.059Z,19.68
2017-05-15T01:25:15.834Z,19.57
2017-05-15T01:26:26.294Z,19.55
2017-05-15T01:27:36.668Z,19.57
2017-05-15T01:28:47.009Z,19.56
2017-05-15T01:29:57.048Z,19.47
2017-05-15T01:31:07.405Z,19.52
2017-05-15T01:32:17.889Z,19.53
2017-05-15T01:33:28.260Z,19.47
2017-05-15T01:34:38.322Z,19.43
2017-05-15T01:35:48.665Z,19.42
2017-05-15T01:36:58.701Z,19.45
2017-05-15T01:38:08.840Z,19.32
2017-05-15T01:39:19.204Z,19.34
2017-05-15T01:40:29.242Z,19.32
2017-05-15T01:41:38.972Z,19.23
2017-05-15T01:42:48.700Z,19.28
2017-05-15T01:43:58.905Z,19.16
2017-05-15T01:45:09.270Z,19.19
2017-05-15T01:46:19.670Z,19.17
2017-05-15T01:47:29.708Z,19.06
2017-05-15T01:48:39.743Z,19.15
2017-05-15T01:49:50.282Z,19
2017-05-15T01:51:00.643Z,18.97
2017-05-15T01:52:11.018Z,18.96
2017-05-15T01:53:21.383Z,18.94
2017-05-15T01:54:31.738Z,18.89
2017-05-15T01:55:42.187Z,18.82
2017-05-15T01:56:52.543Z,18.9
2017-05-15T01:58:01.962Z,18.89
2017-05-15T01:59:12.315Z,18.82
2017-05-15T02:00:22.656Z,18.82
2017-05-15T02:01:32.808Z,18.82
2017-05-15T02:02:43.170Z,18.93
2017-05-15T02:03:53.516Z,18.81
2017-05-15T02:05:03.875Z,18.82
2017-05-15T02:06:14.246Z,18.87
2017-05-15T02:07:24.386Z,18.9
2017-05-15T02:08:34.754Z,18.86
2017-05-15T02:09:45.102Z,18.84
2017-05-15T02:10:55.444Z,18.79
2017-05-15T02:12:05.487Z,18.87
2017-05-15T02:13:15.009Z,18.86
2017-05-15T02:14:25.065Z,18.82
2017-05-15T02:15:35.088Z,18.86
2017-05-15T02:16:45.118Z,18.82
2017-05-15T02:17:55.163Z,18.87
2017-05-15T02:19:04.997Z,18.76
2017-05-15T02:20:15.350Z,18.84
2017-05-15T02:21:25.695Z,18.79
2017-05-15T02:22:35.429Z,18.87
2017-05-15T02:23:45.492Z,18.86
2017-05-15T02:24:55.954Z,18.86
2017-05-15T02:26:06.302Z,18.9
2017-05-15T02:27:16.346Z,18.89
2017-05-15T02:28:26.395Z,18.81
2017-05-15T02:29:36.767Z,18.78
2017-05-15T02:30:47.221Z,18.91
2017-05-15T02:31:57.253Z,18.86
2017-05-15T02:33:07.617Z,18.86
2017-05-15T02:34:17.976Z,18.79
2017-05-15T02:35:28.020Z,18.79
2017-05-15T02:36:37.845Z,18.84
2017-05-15T02:37:48.201Z,18.81
2017-05-15T02:38:58.236Z,18.86
2017-05-15T02:40:08.275Z,18.84
2017-05-15T02:41:18.624Z,18.86
2017-05-15T02:42:29.120Z,18.86
2017-05-15T02:43:39.164Z,18.94
2017-05-15T02:44:49.507Z,18.79
2017-05-15T02:45:59.555Z,18.89
2017-05-15T02:47:09.921Z,18.89
2017-05-15T02:48:20.383Z,18.82
2017-05-15T02:49:30.423Z,18.87
2017-05-15T02:50:40.775Z,18.81
2017-05-15T02:51:51.192Z,18.84
2017-05-15T02:53:01.530Z,18.82
2017-05-15T02:54:11.410Z,18.82
2017-05-15T02:55:21.753Z,18.87
2017-05-15T02:56:31.490Z,18.86
2017-05-15T02:57:41.532Z,18.9
2017-05-15T02:58:51.897Z,18.9
2017-05-15T03:00:02.033Z,18.86
2017-05-15T03:01:12.068Z,18.96
2017-05-15T03:33:17.217Z,16.65
2017-05-15T03:34:27.571Z,16.58
2017-05-15T03:35:38.099Z,16.72
2017-05-15T03:36:48.437Z,16.7
2017-05-15T03:37:58.793Z,16.81
2017-05-15T03:39:08.931Z,16.97
2017-05-15T03:40:18.957Z,17.02
2017-05-15T03:41:29.301Z,17.17
2017-05-15T03:42:39.655Z,17.28
2017-05-15T03:43:49.692Z,17.42
2017-05-15T03:45:00.202Z,17.69
2017-05-15T03:46:10.242Z,17.69
2017-05-15T03:47:20.592Z,17.9
2017-05-15T03:48:30.942Z,17.96
2017-05-15T03:49:41.283Z,18.17
2017-05-15T03:50:51.794Z,18.26
2017-05-15T03:52:02.143Z,18.32
2017-05-15T03:53:12.488Z,18.41
2017-05-15T03:54:22.528Z,18.47
2017-05-15T03:55:32.874Z,18.68
2017-05-15T03:56:43.328Z,18.69
2017-05-15T03:57:53.366Z,18.78
2017-05-15T03:59:03.725Z,18.9
2017-05-15T04:00:13.459Z,19
2017-05-15T04:01:23.818Z,18.97
2017-05-15T04:02:34.271Z,19.12
2017-05-15T04:03:44.629Z,19.13
2017-05-15T04:04:54.368Z,19.27
2017-05-15T04:06:04.723Z,19.23
2017-05-15T04:07:14.748Z,19.32
2017-05-15T04:08:25.204Z,19.38
2017-05-15T04:09:35.561Z,19.42
2017-05-15T04:10:45.607Z,19.49
2017-05-15T04:11:55.971Z,19.49
2017-05-15T04:13:06.330Z,19.57
2017-05-15T04:14:16.478Z,19.68
2017-05-15T04:15:26.841Z,19.61
2017-05-15T04:16:37.227Z,19.6
2017-05-15T04:17:47.270Z,19.65
2017-05-15T04:18:57.636Z,19.63
2017-05-15T04:20:08.077Z,19.78
2017-05-15T04:21:18.454Z,19.61
2017-05-15T04:22:28.847Z,19.79
2017-05-15T04:23:39.210Z,19.74
2017-05-15T04:24:49.245Z,19.79
2017-05-15T04:25:59.751Z,19.82
2017-05-15T04:27:10.098Z,19.8
2017-05-15T04:28:20.489Z,19.85
2017-05-15T04:29:30.533Z,19.87
2017-05-15T04:30:40.897Z,19.83
2017-05-15T04:31:51.403Z,19.93
2017-05-15T04:33:01.796Z,19.87
2017-05-15T04:34:12.153Z,19.95
2017-05-15T04:35:22.537Z,19.92
2017-05-15T04:36:32.871Z,19.97
2017-05-15T04:37:43.023Z,19.93
2017-05-15T04:38:53.382Z,20.04
2017-05-15T04:40:03.762Z,19.97
2017-05-15T04:41:14.109Z,20.01
2017-05-15T04:42:24.457Z,20.05
2017-05-15T04:43:34.921Z,19.98
2017-05-15T04:44:45.277Z,20.1
2017-05-15T04:45:55.648Z,20.01
2017-05-15T04:47:05.702Z,20.12
2017-05-15T04:48:16.084Z,20.02
2017-05-15T04:49:26.596Z,20.11
2017-05-15T04:50:36.947Z,20.01
2017-05-15T04:51:47.312Z,20.08
2017-05-15T04:52:57.667Z,20.19
2017-05-15T04:54:07.700Z,20.22
2017-05-15T04:55:18.155Z,20.32
2017-05-15T04:56:28.392Z,20.25
2017-05-15T04:57:38.433Z,20.25
2017-05-15T04:58:48.771Z,20.27
2017-05-15T04:59:59.124Z,20.34
2017-05-15T05:01:09.569Z,20.29
2017-05-15T05:02:19.601Z,20.29
2017-05-15T05:03:29.955Z,20.29
2017-05-15T05:04:40.314Z,20.27
2017-05-15T05:05:50.668Z,20.37
2017-05-15T05:07:01.122Z,20.38
2017-05-15T05:08:11.470Z,20.38
2017-05-15T05:09:21.536Z,20.38
2017-05-15T05:10:31.570Z,20.35
2017-05-15T05:11:41.605Z,20.37
2017-05-15T05:12:52.120Z,20.35
2017-05-15T05:14:02.465Z,20.35
2017-05-15T05:15:12.515Z,20.42
2017-05-15T05:16:22.858Z,20.38
2017-05-15T05:17:33.208Z,20.48
2017-05-15T05:18:43.665Z,20.42
2017-05-15T05:19:54.033Z,20.42
2017-05-15T05:21:04.399Z,20.42
2017-05-15T05:22:14.456Z,20.41
2017-05-15T05:23:24.809Z,20.46
2017-05-15T05:24:35.265Z,20.44
2017-05-15T05:25:45.608Z,20.49
2017-05-15T05:26:55.940Z,20.53
2017-05-15T05:28:05.669Z,20.48
2017-05-15T05:29:16.013Z,20.57
2017-05-15T05:30:26.151Z,20.58
2017-05-15T05:31:36.738Z,20.58
2017-05-15T05:32:47.081Z,20.66
2017-05-15T05:33:57.465Z,20.66
2017-05-15T05:35:07.829Z,20.75
2017-05-15T05:36:18.337Z,20.72
2017-05-15T05:37:28.720Z,20.86
2017-05-15T05:38:39.065Z,20.79
2017-05-15T05:39:48.811Z,20.86
2017-05-15T05:40:58.862Z,20.94
2017-05-15T05:42:09.311Z,20.96
2017-05-15T05:43:19.342Z,21.01
2017-05-15T05:44:29.699Z,21
2017-05-15T05:45:39.740Z,21.11
2017-05-15T05:46:50.089Z,21.11
2017-05-15T05:48:00.653Z,21.18
2017-05-15T05:49:11.013Z,21.21
2017-05-15T05:50:21.341Z,21.18
2017-05-15T05:51:31.377Z,21.19
2017-05-15T05:52:41.724Z,21.22
2017-05-15T05:53:51.877Z,21.22
2017-05-15T05:55:02.236Z,21.25
2017-05-15T05:56:12.482Z,21.33
2017-05-15T05:57:22.840Z,21.34
2017-05-15T05:58:32.895Z,21.34
2017-05-15T05:59:43.347Z,21.41
2017-05-15T06:00:53.693Z,21.34
2017-05-15T06:02:03.750Z,21.34
2017-05-15T06:03:13.793Z,21.38
2017-05-15T06:04:24.146Z,21.37
2017-05-15T06:05:34.279Z,21.43
2017-05-15T06:06:44.639Z,21.51
2017-05-15T06:07:54.976Z,21.48
2017-05-15T06:09:05.328Z,21.51
2017-05-15T06:10:15.366Z,21.45
2017-05-15T06:11:25.826Z,21.55
2017-05-15T06:12:35.553Z,21.49
2017-05-15T06:13:45.588Z,21.48
2017-05-15T06:14:55.834Z,21.52
2017-05-15T06:16:06.178Z,21.56
2017-05-15T06:17:16.326Z,21.59
2017-05-15T06:18:26.667Z,21.73
2017-05-15T06:19:36.709Z,21.78
2017-05-15T06:20:47.070Z,21.78
2017-05-15T06:21:56.791Z,21.82
2017-05-15T06:23:06.614Z,21.9
2017-05-15T06:24:16.665Z,21.99
2017-05-15T06:25:27.015Z,22.09
2017-05-15T06:26:37.048Z,22.15
2017-05-15T06:27:47.144Z,22.24
2017-05-15T06:28:57.583Z,22.33
2017-05-15T06:30:07.938Z,22.46
2017-05-15T06:31:18.299Z,22.6
2017-05-15T06:32:28.676Z,22.69
2017-05-15T06:33:38.395Z,22.85
2017-05-15T06:34:48.841Z,22.86
2017-05-15T06:35:58.887Z,22.96
2017-05-15T06:37:09.242Z,23.06
2017-05-15T06:38:19.278Z,23.19
2017-05-15T06:39:29.642Z,23.35
2017-05-15T06:40:39.766Z,23.41
2017-05-15T06:41:50.113Z,23.47
2017-05-15T06:43:00.528Z,23.48
2017-05-15T06:44:10.881Z,23.53
2017-05-15T06:45:21.237Z,23.57
2017-05-15T06:46:31.690Z,23.64
2017-05-15T06:47:42.035Z,23.78
2017-05-15T06:48:52.394Z,23.84
2017-05-15T06:50:02.737Z,23.96
2017-05-15T06:51:13.096Z,23.94
2017-05-15T06:52:23.567Z,24.04
2017-05-15T06:53:33.915Z,24.15
2017-05-15T06:54:44.273Z,24.3
2017-05-15T06:55:54.322Z,24.3
2017-05-15T06:57:04.360Z,24.45
2017-05-15T06:58:14.555Z,24.55
2017-05-15T06:59:24.955Z,24.74
2017-05-15T07:00:35.311Z,24.82
2017-05-15T07:01:45.666Z,24.87
2017-05-15T07:02:56.040Z,25.07
2017-05-15T07:04:06.534Z,25.2
2017-05-15T07:05:16.869Z,25.26
2017-05-15T07:06:26.920Z,25.39
2017-05-15T07:07:37.322Z,25.51
2017-05-15T07:08:47.380Z,25.67
2017-05-15T07:09:57.844Z,25.62
2017-05-15T07:11:08.197Z,25.75
2017-05-15T07:12:18.219Z,25.67
2017-05-15T07:13:28.573Z,25.78
2017-05-15T07:14:38.918Z,25.82
2017-05-15T07:15:49.384Z,25.86
2017-05-15T07:16:59.748Z,25.89
2017-05-15T07:18:09.794Z,25.84
2017-05-15T07:19:20.170Z,25.91
2017-05-15T07:20:30.529Z,25.85
2017-05-15T07:21:40.988Z,25.81
2017-05-15T07:22:51.349Z,25.82
2017-05-15T07:24:01.710Z,25.81
2017-05-15T07:25:12.062Z,25.84
2017-05-15T07:26:22.417Z,25.89
2017-05-15T07:27:32.612Z,25.97
2017-05-15T07:28:42.978Z,26.01
2017-05-15T07:29:53.334Z,26.11
2017-05-15T07:31:03.691Z,26.15
2017-05-15T07:32:14.083Z,26.16
2017-05-15T07:33:23.912Z,26.31
2017-05-15T07:34:34.272Z,26.32
2017-05-15T07:35:44.624Z,26.35
2017-05-15T07:36:54.971Z,26.34
2017-05-15T07:38:05.032Z,26.38
2017-05-15T07:39:15.493Z,26.31
2017-05-15T07:40:25.840Z,26.32
2017-05-15T07:41:36.186Z,26.37
2017-05-15T07:42:46.546Z,26.35
2017-05-15T07:43:56.590Z,26.34
2017-05-15T07:45:06.738Z,26.3
2017-05-15T07:46:17.096Z,26.26
2017-05-15T07:47:27.141Z,26.24
2017-05-15T07:48:37.506Z,26.26
2017-05-15T07:49:47.585Z,26.27
2017-05-15T07:50:58.050Z,26.32
2017-05-15T07:52:07.772Z,26.27
2017-05-15T07:53:18.126Z,26.32
2017-05-15T07:54:28.502Z,26.31
2017-05-15T07:55:38.854Z,26.31
2017-05-15T07:56:49.005Z,26.41
2017-05-15T07:57:59.359Z,26.47
2017-05-15T07:59:09.715Z,26.44
2017-05-15T08:00:19.767Z,26.39
2017-05-15T08:01:29.793Z,26.39
2017-05-15T08:02:40.256Z,26.56
2017-05-15T08:03:50.606Z,26.67
2017-05-15T08:05:00.663Z,26.67
2017-05-15T08:06:10.398Z,26.91
2017-05-15T08:07:20.772Z,26.99
2017-05-15T08:08:30.631Z,27.01
2017-05-15T08:09:40.994Z,27.08
2017-05-15T08:10:50.719Z,27.08
2017-05-15T08:12:01.072Z,27.06
2017-05-15T08:13:11.422Z,27.05
2017-05-15T08:14:21.901Z,27.13
2017-05-15T08:15:32.259Z,27.16
2017-05-15T08:16:41.977Z,27.09
2017-05-15T08:17:52.017Z,27.18
2017-05-15T08:19:02.059Z,27.26
2017-05-15T08:20:12.207Z,27.37
2017-05-15T08:21:22.293Z,27.41
2017-05-15T08:22:32.694Z,27.37
2017-05-15T08:23:42.115Z,27.45
2017-05-15T08:24:52.469Z,27.42
2017-05-15T08:26:02.924Z,27.43
2017-05-15T08:27:13.281Z,27.38
2017-05-15T08:28:23.324Z,27.38
2017-05-15T08:29:33.367Z,27.57
2017-05-15T08:30:43.723Z,27.65
2017-05-15T08:31:54.383Z,27.62
2017-05-15T08:33:04.463Z,27.72
2017-05-15T08:34:14.827Z,27.84
2017-05-15T08:35:25.170Z,27.86
2017-05-15T08:36:35.526Z,27.87
2017-05-15T08:37:45.996Z,27.89
2017-05-15T08:38:56.349Z,27.93
2017-05-15T08:40:06.711Z,28.03
2017-05-15T08:41:17.077Z,27.94
2017-05-15T08:42:27.434Z,28.02
2017-05-15T08:43:37.884Z,28.11
2017-05-15T08:44:47.930Z,28.06
2017-05-15T08:45:57.971Z,28.08
2017-05-15T08:47:08.025Z,28.08
2017-05-15T08:48:18.382Z,28.18
2017-05-15T08:49:28.861Z,28.12
2017-05-15T08:50:39.215Z,28.05
2017-05-15T08:51:49.554Z,28.08
2017-05-15T08:52:59.930Z,28.21
2017-05-15T08:54:09.963Z,28.26
2017-05-15T08:55:20.429Z,28.43
2017-05-15T08:56:30.785Z,28.53
2017-05-15T08:57:41.145Z,28.64
2017-05-15T08:58:51.535Z,28.64
2017-05-15T09:00:01.949Z,28.68
2017-05-15T09:01:12.440Z,28.85
2017-05-15T09:02:22.813Z,28.91
2017-05-15T09:03:33.194Z,28.83
2017-05-15T09:04:43.552Z,28.98
2017-05-15T09:05:53.601Z,28.98
2017-05-15T09:07:03.738Z,28.97
2017-05-15T09:08:13.782Z,29.18
2017-05-15T09:09:23.835Z,29.32
2017-05-15T09:10:34.197Z,29.2
2017-05-15T09:11:44.278Z,29.33
2017-05-15T09:12:54.768Z,29.47
2017-05-15T09:14:04.822Z,29.57
2017-05-15T09:15:14.874Z,29.5
2017-05-15T09:16:25.240Z,29.47
2017-05-15T09:17:35.612Z,29.42
2017-05-15T09:18:46.076Z,29.39
2017-05-15T09:19:55.806Z,29.47
2017-05-15T09:21:05.535Z,29.43
2017-05-15T09:22:15.871Z,29.66
2017-05-15T09:23:26.247Z,29.7
2017-05-15T09:24:36.424Z,29.75
2017-05-15T09:25:46.780Z,29.81
2017-05-15T09:26:56.513Z,29.81
2017-05-15T09:28:06.872Z,29.88
2017-05-15T09:29:17.236Z,30.06
2017-05-15T09:30:27.704Z,30.07
2017-05-15T09:31:38.058Z,30.19
2017-05-15T09:32:48.424Z,30.37
2017-05-15T09:33:58.781Z,30.31
2017-05-15T09:35:09.163Z,30.42
2017-05-15T09:36:19.329Z,30.48
2017-05-15T09:37:29.698Z,30.37
2017-05-15T09:38:40.055Z,30.47
2017-05-15T09:39:50.111Z,30.57
2017-05-15T09:41:00.149Z,30.64
2017-05-15T09:42:10.625Z,30.57
2017-05-15T09:43:20.731Z,30.57
2017-05-15T09:44:31.132Z,30.67
2017-05-15T09:45:41.480Z,30.57
2017-05-15T09:46:51.830Z,30.49
2017-05-15T09:48:02.223Z,30.54
2017-05-15T09:49:12.277Z,30.67
2017-05-15T09:50:22.647Z,30.71
2017-05-15T09:51:33.024Z,30.63
2017-05-15T09:52:43.379Z,30.51
2017-05-15T09:53:53.833Z,30.31
2017-05-15T09:55:04.203Z,30.47
2017-05-15T09:56:14.561Z,30.57
2017-05-15T09:57:24.937Z,30.64
2017-05-15T09:58:35.307Z,30.44
2017-05-15T09:59:45.770Z,30.25
2017-05-15T10:00:55.808Z,30.14
2017-05-15T10:02:06.340Z,29.98
2017-05-15T10:03:16.792Z,30.09
2017-05-15T10:04:26.842Z,30.14
2017-05-15T10:05:37.062Z,30.47
2017-05-15T10:06:47.426Z,30.71
2017-05-15T10:07:57.784Z,30.88
2017-05-15T10:09:08.160Z,31
2017-05-15T10:10:18.512Z,31.18
2017-05-15T10:11:29.018Z,31.16
2017-05-15T10:12:39.390Z,31.16
2017-05-15T10:13:49.769Z,31.21
2017-05-15T10:15:00.139Z,31.19
2017-05-15T10:16:10.185Z,31.21
2017-05-15T10:17:20.660Z,31.08
2017-05-15T10:18:31.034Z,31.04
2017-05-15T10:19:41.088Z,31.18
2017-05-15T10:20:51.152Z,31.3
2017-05-15T10:22:01.513Z,31.41
2017-05-15T10:23:11.963Z,31.47
2017-05-15T10:24:22.332Z,31.41
2017-05-15T10:25:32.695Z,31.45
2017-05-15T10:26:42.744Z,31.47
2017-05-15T10:27:53.110Z,31.47
2017-05-15T10:29:03.635Z,31.5
2017-05-15T10:30:14.017Z,31.41
2017-05-15T10:31:24.098Z,31.4
2017-05-15T10:32:34.507Z,31.22
2017-05-15T10:33:44.567Z,31.15
2017-05-15T10:34:55.093Z,31.22
2017-05-15T10:36:05.481Z,31.16
2017-05-15T10:37:15.845Z,31.03
2017-05-15T10:38:26.216Z,30.99
2017-05-15T10:39:36.568Z,30.81
2017-05-15T10:40:47.026Z,30.52
2017-05-15T10:41:57.384Z,30.29
2017-05-15T10:43:07.431Z,30
2017-05-15T10:44:17.794Z,29.76
2017-05-15T10:45:27.847Z,29.77
2017-05-15T10:46:38.312Z,29.84
2017-05-15T10:47:48.383Z,29.94
2017-05-15T10:48:58.121Z,30.11
2017-05-15T10:50:08.501Z,30.13
2017-05-15T10:51:18.872Z,30.44
2017-05-15T10:52:29.344Z,30.49
2017-05-15T10:53:39.692Z,30.6
2017-05-15T10:54:50.060Z,30.71
2017-05-15T10:56:00.434Z,30.75
2017-05-15T10:57:10.804Z,30.73
2017-05-15T10:58:21.292Z,30.64
2017-05-15T10:59:31.347Z,30.57
2017-05-15T11:00:41.399Z,30.54
2017-05-15T11:01:51.454Z,30.49
2017-05-15T11:03:01.808Z,30.48
2017-05-15T11:04:12.279Z,30.37
2017-05-15T11:05:22.627Z,30.29
2017-05-15T11:06:32.991Z,30.24
2017-05-15T11:07:42.737Z,30.18
2017-05-15T11:08:53.097Z,30.29
2017-05-15T11:10:03.569Z,30.47
2017-05-15T11:11:13.920Z,30.57
2017-05-15T11:12:24.287Z,30.64
2017-05-15T11:13:34.644Z,30.7
2017-05-15T11:14:44.387Z,30.85
2017-05-15T11:15:54.848Z,30.97
2017-05-15T11:17:05.219Z,31.26
2017-05-15T11:18:15.266Z,31.34
2017-05-15T11:19:25.314Z,31.33
2017-05-15T11:20:35.679Z,31.44
2017-05-15T11:21:46.448Z,31.55
2017-05-15T11:22:56.859Z,31.62
2017-05-15T11:24:06.904Z,31.6
2017-05-15T11:25:16.955Z,31.55
2017-05-15T11:26:27.302Z,31.49
2017-05-15T11:27:37.513Z,31.38
2017-05-15T11:28:47.881Z,31.38
2017-05-15T11:29:58.254Z,31.34
2017-05-15T11:31:07.686Z,31.34
2017-05-15T11:32:18.036Z,31.21
2017-05-15T11:33:28.505Z,31.07
2017-05-15T11:34:38.872Z,31
2017-05-15T11:35:48.923Z,30.96
2017-05-15T11:36:59.299Z,30.82
2017-05-15T11:38:09.679Z,30.7
2017-05-15T11:39:19.828Z,30.73
2017-05-15T11:40:30.190Z,30.82
2017-05-15T11:41:40.247Z,30.99
2017-05-15T11:42:50.607Z,31.21
2017-05-15T11:44:00.330Z,31.31
2017-05-15T11:45:10.817Z,31.5
2017-05-15T11:46:21.198Z,31.59
2017-05-15T11:47:31.615Z,31.59
2017-05-15T11:48:41.979Z,31.43
2017-05-15T11:49:52.394Z,31.21
2017-05-15T11:51:02.869Z,31.01
2017-05-15T11:52:13.248Z,30.86
2017-05-15T11:53:23.610Z,30.75
2017-05-15T11:54:33.989Z,30.59
2017-05-15T11:55:44.047Z,30.1
2017-05-15T11:56:54.199Z,29.79
2017-05-15T11:58:04.545Z,29.54
2017-05-15T11:59:14.610Z,29.36
2017-05-15T12:00:24.971Z,29.28
2017-05-15T12:01:35.029Z,29.26
2017-05-15T12:02:45.183Z,29.33
2017-05-15T12:03:55.222Z,29.3
2017-05-15T12:05:05.664Z,29.48
2017-05-15T12:06:16.023Z,29.4
2017-05-15T12:07:26.393Z,29.4
2017-05-15T12:08:36.857Z,29.6
2017-05-15T12:09:47.219Z,29.47
2017-05-15T12:10:57.283Z,29.54
2017-05-15T12:12:07.653Z,29.52
2017-05-15T12:13:17.712Z,29.45
2017-05-15T12:14:28.184Z,29.48
2017-05-15T12:15:38.564Z,29.54
2017-05-15T12:16:48.938Z,29.63
2017-05-15T12:17:58.977Z,29.61
2017-05-15T12:19:09.018Z,29.72
2017-05-15T12:20:19.492Z,29.7
2017-05-15T12:21:29.851Z,29.77
2017-05-15T12:22:39.899Z,29.76
2017-05-15T12:23:50.261Z,29.76
2017-05-15T12:25:00.637Z,30
2017-05-15T12:26:10.484Z,30.02
2017-05-15T12:27:20.552Z,30
2017-05-15T12:28:30.597Z,30.04
2017-05-15T12:29:40.645Z,30.06
2017-05-15T12:30:51.026Z,30.19
2017-05-15T12:32:01.163Z,30.28
2017-05-15T12:33:11.519Z,30.34
2017-05-15T12:34:21.877Z,30.47
2017-05-15T12:35:31.931Z,30.57
2017-05-15T12:36:42.299Z,30.69
2017-05-15T12:37:52.823Z,30.81
2017-05-15T12:39:03.187Z,30.81
2017-05-15T12:40:13.558Z,30.94
2017-05-15T12:41:23.284Z,30.93
2017-05-15T12:42:33.644Z,31
2017-05-15T12:43:44.109Z,31.03
2017-05-15T12:44:54.481Z,31.23
2017-05-15T12:46:04.889Z,31.26
2017-05-15T12:47:15.258Z,31.19
2017-05-15T12:48:25.358Z,31.16
2017-05-15T12:49:35.498Z,31.16
2017-05-15T12:50:45.865Z,31.26
2017-05-15T12:51:56.242Z,31.34
2017-05-15T12:53:06.589Z,31.3
2017-05-15T12:54:16.941Z,31.3
2017-05-15T12:55:27.473Z,31.34
2017-05-15T12:56:37.824Z,31.36
2017-05-15T12:57:48.197Z,31.25
2017-05-15T12:58:58.578Z,31.3
2017-05-15T13:00:08.938Z,31.22
2017-05-15T13:01:19.405Z,31.19
2017-05-15T13:02:29.448Z,31.15
2017-05-15T13:03:39.508Z,31.18
2017-05-15T13:04:49.891Z,31.13
2017-05-15T13:06:00.279Z,31.16
2017-05-15T13:07:10.747Z,31.12
2017-05-15T13:08:21.130Z,31.13
2017-05-15T13:09:31.489Z,31.07
2017-05-15T13:10:41.875Z,31.12
2017-05-15T13:11:52.234Z,31.13
2017-05-15T13:13:02.690Z,31.19
2017-05-15T13:14:13.057Z,31.18
2017-05-15T13:15:23.451Z,31.06
2017-05-15T13:16:33.499Z,31.18
2017-05-15T13:17:43.871Z,31.22
2017-05-15T13:18:54.359Z,31.18
2017-05-15T13:20:04.719Z,31.37
2017-05-15T13:21:14.761Z,31.44
2017-05-15T13:22:25.139Z,31.4
2017-05-15T13:23:35.500Z,31.37
2017-05-15T13:24:46.026Z,31.45
2017-05-15T13:25:55.796Z,31.44
2017-05-15T13:27:06.171Z,31.47
2017-05-15T13:28:16.537Z,31.45
2017-05-15T13:29:26.602Z,31.53
2017-05-15T13:30:36.759Z,31.65
2017-05-15T13:31:47.121Z,31.63
2017-05-15T13:32:57.495Z,31.68
2017-05-15T13:34:07.546Z,31.65
2017-05-15T13:35:17.908Z,31.7
2017-05-15T13:36:28.355Z,31.72
2017-05-15T13:37:38.717Z,31.77
2017-05-15T13:38:49.084Z,31.63
2017-05-15T13:39:59.441Z,31.78
2017-05-15T13:41:09.494Z,31.9
2017-05-15T13:42:19.957Z,31.9
2017-05-15T13:43:30.341Z,31.95
2017-05-15T13:44:40.711Z,31.97
2017-05-15T13:45:51.085Z,32.01
2017-05-15T13:47:01.178Z,31.94
2017-05-15T13:48:11.662Z,31.94
2017-05-15T13:49:21.725Z,31.88
2017-05-15T13:50:31.800Z,31.9
2017-05-15T13:51:42.163Z,31.75
2017-05-15T13:52:52.632Z,31.63
2017-05-15T13:54:03.197Z,31.47
2017-05-15T13:55:13.553Z,31.31
2017-05-15T13:56:23.923Z,31.15
2017-05-15T13:57:34.284Z,30.93
2017-05-15T13:58:44.667Z,30.64
2017-05-15T13:59:55.151Z,30.28
2017-05-15T14:01:05.537Z,29.94
2017-05-15T14:02:15.893Z,29.6
2017-05-15T14:03:26.264Z,29.1
2017-05-15T14:04:36.642Z,28.85
2017-05-15T14:05:46.480Z,28.49
2017-05-15T14:06:56.856Z,28.23
2017-05-15T14:08:07.273Z,27.81
2017-05-15T14:09:17.049Z,27.38
2017-05-15T14:10:27.427Z,27.06
2017-05-15T14:11:37.885Z,26.74
2017-05-15T14:12:47.940Z,26.34
2017-05-15T14:13:58.298Z,26.2
2017-05-15T14:15:08.650Z,25.96
2017-05-15T14:16:19.025Z,25.63
2017-05-15T14:17:29.187Z,25.33
2017-05-15T14:18:39.235Z,25.05
2017-05-15T14:19:49.596Z,24.48
2017-05-15T14:20:59.334Z,23.71
2017-05-15T14:22:09.694Z,23.01
2017-05-15T14:23:20.161Z,22.48
2017-05-15T14:24:30.531Z,21.93
2017-05-15T14:25:40.918Z,21.53
2017-05-15T14:26:51.280Z,21.06
2017-05-15T14:28:01.669Z,20.72
2017-05-15T14:29:12.121Z,20.58
2017-05-15T14:30:21.837Z,20.35
2017-05-15T14:31:32.210Z,20.34
2017-05-15T14:32:42.241Z,20.23
2017-05-15T14:33:52.612Z,20.1
2017-05-15T14:35:03.078Z,20.11
2017-05-15T14:36:13.449Z,20.1
2017-05-15T14:37:23.493Z,20.23
2017-05-15T14:38:33.846Z,20.23
2017-05-15T14:39:43.910Z,20.22
2017-05-15T14:40:54.379Z,20.34
2017-05-15T14:42:04.423Z,20.38
2017-05-15T14:43:14.468Z,20.4
2017-05-15T14:44:24.497Z,20.46
2017-05-15T14:45:34.856Z,20.57
2017-05-15T14:46:44.996Z,20.56
2017-05-15T14:47:55.369Z,20.71
2017-05-15T14:49:05.414Z,20.85
2017-05-15T14:50:15.778Z,20.94
2017-05-15T14:51:26.151Z,20.93
2017-05-15T14:52:36.614Z,21.11
2017-05-15T14:53:47.031Z,21.19
2017-05-15T14:54:57.076Z,21.23
2017-05-15T14:56:07.112Z,21.36
2017-05-15T14:57:17.498Z,21.49
2017-05-15T14:58:28.015Z,21.64
2017-05-15T14:59:38.404Z,21.89
2017-05-15T15:00:48.767Z,22.11
2017-05-15T15:01:58.805Z,22.31
2017-05-15T15:03:08.852Z,22.59
2017-05-15T15:04:19.022Z,22.73
2017-05-15T15:05:29.370Z,22.96
2017-05-15T15:06:39.711Z,23.25
2017-05-15T15:07:49.753Z,23.53
2017-05-15T15:08:59.497Z,23.74
2017-05-15T15:10:09.017Z,23.96
2017-05-15T15:11:19.074Z,24.11
2017-05-15T15:12:29.440Z,24.39
2017-05-15T15:13:39.490Z,24.56
2017-05-15T15:14:49.849Z,24.82
2017-05-15T15:16:00.326Z,25.05
2017-05-15T15:17:10.376Z,25.24
2017-05-15T15:18:20.747Z,25.57
2017-05-15T15:19:31.107Z,25.79
2017-05-15T15:20:41.469Z,26.07
2017-05-15T15:21:51.925Z,26.3
2017-05-15T15:23:02.342Z,26.27
2017-05-15T15:24:12.389Z,26.49
2017-05-15T15:25:22.766Z,26.47
2017-05-15T15:26:33.130Z,26.42
2017-05-15T15:27:42.972Z,26.41
2017-05-15T15:28:53.024Z,26.41
2017-05-15T15:30:03.074Z,26.57
2017-05-15T15:31:13.451Z,26.6
2017-05-15T15:32:23.506Z,26.61
2017-05-15T15:33:33.981Z,26.63
2017-05-15T15:34:44.332Z,26.59
2017-05-15T15:35:54.371Z,26.6
2017-05-15T15:37:04.759Z,26.63
2017-05-15T15:38:15.129Z,26.64
2017-05-15T15:39:25.639Z,26.61